createdAt,value
2022-08-16T00:02:33.024Z,45.75
2022-08-16T00:05:00.497Z,45.91
2022-08-16T00:07:29.502Z,45.71
2022-08-16T00:09:57.793Z,45.83
2022-08-16T00:12:28.436Z,45.63
2022-08-16T00:14:57.210Z,45.70
2022-08-16T00:17:25.540Z,45.76
2022-08-16T00:19:55.186Z,45.59
2022-08-16T00:22:24.760Z,45.97
2022-08-16T00:24:54.545Z,45.91
2022-08-16T00:27:22.716Z,46.05
2022-08-16T00:30:08.754Z,46.15
2022-08-16T00:32:44.206Z,45.86
2022-08-16T00:35:15.770Z,45.77
2022-08-16T00:37:56.303Z,46.13
2022-08-16T00:40:34.467Z,45.83
2022-08-16T00:43:19.127Z,46.11
2022-08-16T00:46:33.184Z,45.69
2022-08-16T00:48:53.848Z,45.68
2022-08-16T00:51:23.514Z,46.03
2022-08-16T00:53:53.216Z,46.17
2022-08-16T00:56:56.876Z,46.02
2022-08-16T00:59:15.282Z,46.19
2022-08-16T01:01:44.765Z,46.44
2022-08-16T01:04:29.646Z,45.71
2022-08-16T01:07:03.761Z,45.78
2022-08-16T01:09:37.362Z,45.92
2022-08-16T01:12:08.498Z,45.79
2022-08-16T01:14:43.605Z,45.92
2022-08-16T01:17:14.524Z,45.97
2022-08-16T01:19:50.032Z,45.71
2022-08-16T01:22:47.062Z,45.79
2022-08-16T01:25:22.125Z,46.09
2022-08-16T01:27:52.802Z,45.93
2022-08-16T01:30:27.498Z,45.82
2022-08-16T01:33:14.157Z,45.97
2022-08-16T01:35:52.896Z,45.98
2022-08-16T01:38:28.450Z,46.06
2022-08-16T01:41:03.544Z,45.96
2022-08-16T01:43:33.533Z,46.01
2022-08-16T01:46:30.160Z,45.93
2022-08-16T01:49:02.487Z,46.10
2022-08-16T01:51:30.316Z,46.24
2022-08-16T01:53:58.304Z,45.81
2022-08-16T01:56:30.236Z,46.16
2022-08-16T01:59:04.411Z,46.18
2022-08-16T02:01:32.878Z,46.16
2022-08-16T02:04:10.425Z,46.12
2022-08-16T02:06:46.078Z,46.23
2022-08-16T02:09:19.868Z,46.19
2022-08-16T02:11:54.686Z,46.09
2022-08-16T02:14:27.617Z,46.29
2022-08-16T02:16:58.508Z,46.26
2022-08-16T02:19:58.457Z,46.20
2022-08-16T02:22:33.795Z,46.00
2022-08-16T02:25:06.745Z,45.83
2022-08-16T02:27:35.197Z,46.00
2022-08-16T02:30:07.541Z,46.21
2022-08-16T02:32:50.455Z,46.23
2022-08-16T02:35:23.137Z,46.04
2022-08-16T02:37:52.961Z,45.93
2022-08-16T02:40:24.489Z,46.02
2022-08-16T02:42:53.586Z,45.86
2022-08-16T02:45:24.871Z,46.30
2022-08-16T02:48:00.183Z,46.07
2022-08-16T02:50:54.814Z,46.28
2022-08-16T02:53:18.015Z,45.84
2022-08-16T02:55:46.182Z,45.83
2022-08-16T02:58:18.268Z,46.31
2022-08-16T03:00:45.456Z,45.81
2022-08-16T03:03:12.723Z,46.22
2022-08-16T03:05:50.047Z,46.00
2022-08-16T03:08:50.466Z,45.80
2022-08-16T03:11:16.692Z,46.27
2022-08-16T03:13:47.997Z,46.32
2022-08-16T03:16:36.610Z,45.88
2022-08-16T03:19:07.677Z,46.07
2022-08-16T03:21:37.397Z,45.84
2022-08-16T03:24:28.533Z,46.28
2022-08-16T03:27:02.724Z,46.18
2022-08-16T03:29:32.957Z,45.90
2022-08-16T03:32:03.380Z,46.30
2022-08-16T03:34:33.321Z,45.81
2022-08-16T03:37:00.532Z,45.96
2022-08-16T03:39:27.689Z,45.90
2022-08-16T03:41:59.767Z,45.91
2022-08-16T03:44:44.429Z,45.98
2022-08-16T03:47:18.547Z,46.32
2022-08-16T03:49:51.200Z,46.29
2022-08-16T03:52:23.672Z,45.91
2022-08-16T03:54:58.044Z,46.02
2022-08-16T03:57:31.798Z,46.06
2022-08-16T04:00:20.301Z,45.99
2022-08-16T04:03:09.613Z,45.87
2022-08-16T04:05:47.254Z,45.93
2022-08-16T04:08:22.495Z,46.17
2022-08-16T04:13:59.270Z,46.35
2022-08-16T04:16:09.344Z,46.29
2022-08-16T04:19:02.233Z,46.05
2022-08-16T04:21:32.074Z,46.37
2022-08-16T04:24:00.737Z,46.36
2022-08-16T04:26:30.754Z,46.03
2022-08-16T04:29:17.240Z,45.99
2022-08-16T04:31:56.385Z,46.31
2022-08-16T04:34:30.107Z,45.91
2022-08-16T04:37:00.995Z,46.17
2022-08-16T04:39:36.532Z,46.15
2022-08-16T04:42:11.444Z,46.13
2022-08-16T04:44:53.959Z,46.03
2022-08-16T04:47:31.609Z,45.96
2022-08-16T04:50:15.441Z,45.91
2022-08-16T04:53:03.176Z,46.28
2022-08-16T04:55:38.262Z,46.22
2022-08-16T04:58:45.901Z,46.41
2022-08-16T05:00:57.372Z,46.24
2022-08-16T05:03:24.289Z,46.12
2022-08-16T05:05:59.120Z,46.36
2022-08-16T05:08:31.300Z,46.23
2022-08-16T05:11:08.300Z,46.21
2022-08-16T05:13:41.337Z,46.17
2022-08-16T05:16:31.376Z,46.34
2022-08-16T05:19:06.284Z,45.87
2022-08-16T05:21:41.091Z,46.21
2022-08-16T05:24:10.662Z,46.17
2022-08-16T05:26:43.105Z,46.30
2022-08-16T05:29:14.749Z,46.21
2022-08-16T05:31:56.864Z,45.89
2022-08-16T05:34:25.071Z,46.17
2022-08-16T05:36:57.225Z,46.27
2022-08-16T05:39:29.285Z,46.19
2022-08-16T05:42:00.780Z,46.00
2022-08-16T05:44:28.365Z,45.94
2022-08-16T05:47:00.342Z,46.21
2022-08-16T05:49:38.364Z,45.83
2022-08-16T05:52:13.620Z,46.07
2022-08-16T05:54:47.486Z,45.83
2022-08-16T05:57:26.111Z,46.00
2022-08-16T06:00:07.100Z,45.79
2022-08-16T06:02:44.671Z,45.90
2022-08-16T06:05:30.746Z,46.02
2022-08-16T06:08:04.558Z,45.63
2022-08-16T06:10:35.636Z,45.79
2022-08-16T06:13:04.315Z,45.84
2022-08-16T06:15:31.736Z,45.75
2022-08-16T06:17:59.411Z,45.61
2022-08-16T06:20:35.176Z,46.03
2022-08-16T06:23:18.091Z,45.60
2022-08-16T06:26:07.955Z,45.82
2022-08-16T06:28:39.606Z,45.67
2022-08-16T06:31:13.571Z,45.97
2022-08-16T06:33:44.736Z,46.00
2022-08-16T06:36:14.287Z,45.90
2022-08-16T06:38:56.085Z,45.66
2022-08-16T06:41:46.184Z,45.64
2022-08-16T06:44:38.716Z,45.65
2022-08-16T06:47:17.038Z,46.17
2022-08-16T06:49:52.720Z,47.38
2022-08-16T06:52:59.865Z,47.81
2022-08-16T06:55:13.622Z,48.46
2022-08-16T06:57:46.147Z,48.71
2022-08-16T07:00:24.055Z,49.03
2022-08-16T07:03:27.419Z,49.04
2022-08-16T07:05:52.319Z,49.46
2022-08-16T07:08:27.596Z,49.71
2022-08-16T07:10:55.517Z,49.96
2022-08-16T07:13:51.708Z,49.76
2022-08-16T07:16:15.357Z,49.42
2022-08-16T07:21:07.864Z,50.13
2022-08-16T07:23:39.256Z,49.93
2022-08-16T07:26:24.878Z,50.24
2022-08-16T07:28:55.175Z,50.64
2022-08-16T07:31:22.921Z,50.67
2022-08-16T07:33:51.899Z,51.00
2022-08-16T07:36:25.752Z,50.89
2022-08-16T07:38:53.179Z,50.96
2022-08-16T07:41:21.957Z,51.11
2022-08-16T07:43:55.757Z,51.42
2022-08-16T07:46:37.465Z,51.20
2022-08-16T07:49:14.552Z,51.48
2022-08-16T07:51:41.558Z,52.07
2022-08-16T07:54:17.003Z,52.23
2022-08-16T07:56:53.132Z,52.32
2022-08-16T07:59:20.288Z,52.47
2022-08-16T08:01:47.658Z,52.14
2022-08-16T08:04:20.299Z,52.55
2022-08-16T08:06:51.140Z,52.65
2022-08-16T08:09:18.703Z,52.56
2022-08-16T08:12:01.254Z,52.61
2022-08-16T08:14:37.536Z,52.29
2022-08-16T08:17:08.631Z,52.35
2022-08-16T08:19:37.361Z,52.85
2022-08-16T08:22:21.985Z,52.71
2022-08-16T08:24:53.789Z,52.88
2022-08-16T08:27:26.996Z,52.77
2022-08-16T08:30:49.969Z,52.60
2022-08-16T08:32:58.023Z,52.93
2022-08-16T08:35:30.471Z,52.56
2022-08-16T08:37:58.923Z,52.62
2022-08-16T08:40:30.016Z,52.68
2022-08-16T08:43:00.622Z,52.43
2022-08-16T08:45:48.824Z,52.18
2022-08-16T08:48:34.219Z,52.34
2022-08-16T08:51:15.314Z,52.08
2022-08-16T08:53:58.047Z,51.83
2022-08-16T08:56:32.305Z,51.83
2022-08-16T08:59:13.091Z,51.91
2022-08-16T09:01:56.613Z,52.33
2022-08-16T09:04:27.473Z,52.37
2022-08-16T09:06:55.715Z,52.32
2022-08-16T09:09:23.980Z,52.03
2022-08-16T09:12:04.226Z,51.95
2022-08-16T09:17:11.648Z,51.90
2022-08-16T09:19:44.428Z,52.10
2022-08-16T09:22:19.797Z,52.73
2022-08-16T09:24:53.633Z,53.13
2022-08-16T09:27:25.353Z,53.08
2022-08-16T09:30:00.029Z,53.13
2022-08-16T09:32:30.577Z,53.02
2022-08-16T09:34:59.427Z,53.12
2022-08-16T09:37:29.677Z,53.34
2022-08-16T09:39:59.509Z,53.43
2022-08-16T09:42:27.712Z,53.40
2022-08-16T09:45:11.908Z,53.22
2022-08-16T09:47:56.538Z,53.01
2022-08-16T09:50:36.743Z,52.93
2022-08-16T09:53:15.440Z,52.96
2022-08-16T09:58:10.618Z,53.12
2022-08-16T10:00:44.145Z,53.03
2022-08-16T10:03:11.803Z,52.69
2022-08-16T10:05:38.591Z,52.75
2022-08-16T10:08:25.803Z,52.70
2022-08-16T10:11:11.103Z,52.86
2022-08-16T10:13:39.601Z,53.10
2022-08-16T10:18:56.319Z,53.06
2022-08-16T10:21:09.552Z,53.06
2022-08-16T10:23:36.705Z,53.22
2022-08-16T10:27:19.015Z,53.03
2022-08-16T10:28:54.089Z,53.17
2022-08-16T10:31:44.153Z,53.31
2022-08-16T10:34:30.980Z,53.06
2022-08-16T10:36:55.076Z,53.33
2022-08-16T10:39:21.690Z,53.00
2022-08-16T10:41:51.219Z,53.25
2022-08-16T10:44:17.868Z,53.13
2022-08-16T10:46:45.233Z,53.03
2022-08-16T10:49:13.096Z,53.42
2022-08-16T10:52:02.836Z,53.24
2022-08-16T10:54:32.942Z,53.41
2022-08-16T10:57:01.348Z,53.16
2022-08-16T10:59:45.985Z,53.22
2022-08-16T11:03:37.751Z,53.15
2022-08-16T11:05:14.160Z,53.03
2022-08-16T11:07:52.011Z,53.08
2022-08-16T11:13:57.274Z,52.98
2022-08-16T11:19:05.554Z,52.33
2022-08-16T11:21:37.665Z,52.35
2022-08-16T11:24:41.558Z,52.36
2022-08-16T11:27:23.463Z,52.25
2022-08-16T11:29:54.977Z,52.48
2022-08-16T11:32:31.228Z,52.23
2022-08-16T11:35:10.587Z,52.09
2022-08-16T11:40:52.811Z,51.87
2022-08-16T11:43:22.887Z,51.71
2022-08-16T11:45:54.041Z,51.63
2022-08-16T11:48:25.156Z,51.32
2022-08-16T11:50:52.537Z,51.29
2022-08-16T11:53:21.089Z,51.43
2022-08-16T11:55:54.471Z,51.36
2022-08-16T11:58:25.387Z,51.61
2022-08-16T12:00:53.801Z,51.25
2022-08-16T12:03:34.622Z,51.44
2022-08-16T12:06:11.174Z,51.21
2022-08-16T12:08:53.111Z,51.29
2022-08-16T12:11:19.679Z,51.31
2022-08-16T12:13:49.356Z,51.28
2022-08-16T12:16:20.669Z,51.18
2022-08-16T12:21:21.085Z,51.09
2022-08-16T12:23:49.248Z,50.95
2022-08-16T12:26:17.204Z,50.91
2022-08-16T12:28:55.908Z,51.39
2022-08-16T12:31:24.536Z,51.10
2022-08-16T12:33:54.591Z,50.95
2022-08-16T12:36:26.218Z,50.90
2022-08-16T12:38:56.999Z,51.14
2022-08-16T12:41:24.575Z,50.73
2022-08-16T12:43:57.268Z,50.97
2022-08-16T12:46:28.616Z,50.73
2022-08-16T12:49:00.160Z,50.78
2022-08-16T12:51:59.225Z,50.75
2022-08-16T12:54:23.922Z,50.70
2022-08-16T12:56:50.874Z,50.62
2022-08-16T12:59:20.454Z,50.77
2022-08-16T13:01:47.974Z,50.71
2022-08-16T13:04:20.222Z,50.48
2022-08-16T13:06:48.908Z,50.52
2022-08-16T13:09:26.365Z,50.41
2022-08-16T13:12:17.609Z,50.55
2022-08-16T13:14:45.144Z,50.52
2022-08-16T13:17:18.695Z,50.28
2022-08-16T13:22:03.294Z,50.55
2022-08-16T13:24:29.981Z,50.39
2022-08-16T13:26:56.762Z,50.50
2022-08-16T13:29:23.620Z,50.12
2022-08-16T13:31:50.500Z,50.36
2022-08-16T13:34:18.763Z,50.38
2022-08-16T13:36:49.281Z,50.33
2022-08-16T13:39:18.075Z,50.20
2022-08-16T13:41:44.792Z,50.20
2022-08-16T13:44:21.229Z,50.28
2022-08-16T13:46:47.835Z,50.40
2022-08-16T13:49:14.660Z,50.18
2022-08-16T13:51:41.296Z,50.34
2022-08-16T13:54:08.171Z,50.22
2022-08-16T13:56:39.655Z,50.20
2022-08-16T13:59:20.643Z,49.89
2022-08-16T14:01:54.536Z,50.13
2022-08-16T14:04:28.138Z,50.12
2022-08-16T14:06:57.137Z,50.02
2022-08-16T14:09:24.548Z,49.89
2022-08-16T14:11:54.450Z,50.05
2022-08-16T14:14:29.297Z,49.92
2022-08-16T14:17:01.613Z,49.81
2022-08-16T14:19:29.820Z,50.02
2022-08-16T14:22:15.092Z,49.70
2022-08-16T14:24:47.707Z,50.09
2022-08-16T14:27:17.093Z,49.75
2022-08-16T14:29:45.159Z,49.97
2022-08-16T14:32:33.644Z,49.78
2022-08-16T14:35:10.998Z,49.72
2022-08-16T14:37:39.907Z,49.67
2022-08-16T14:40:13.708Z,50.02
2022-08-16T14:42:41.496Z,49.91
2022-08-16T14:45:13.420Z,49.74
2022-08-16T14:47:40.684Z,49.83
2022-08-16T14:50:13.008Z,50.03
2022-08-16T14:52:55.132Z,50.07
2022-08-16T14:57:54.597Z,49.94
2022-08-16T15:00:33.013Z,49.99
2022-08-16T15:03:04.592Z,50.08
2022-08-16T15:05:32.226Z,50.18
2022-08-16T15:07:59.105Z,50.26
2022-08-16T15:11:41.944Z,50.21
2022-08-16T15:16:35.436Z,50.34
2022-08-16T15:19:03.473Z,50.14
2022-08-16T15:21:30.749Z,49.92
2022-08-16T15:23:58.803Z,50.07
2022-08-16T15:26:42.627Z,49.78
2022-08-16T15:29:12.030Z,50.07
2022-08-16T15:31:44.388Z,49.99
2022-08-16T15:34:22.122Z,49.83
2022-08-16T15:36:53.120Z,49.85
2022-08-16T15:39:30.483Z,49.73
2022-08-16T15:42:11.057Z,49.77
2022-08-16T15:44:50.880Z,49.96
2022-08-16T15:47:25.965Z,50.02
2022-08-16T15:49:55.581Z,49.97
2022-08-16T15:52:34.557Z,50.03
2022-08-16T15:55:07.400Z,50.05
2022-08-16T15:57:41.543Z,49.91
2022-08-16T16:00:20.627Z,49.82
2022-08-16T16:02:49.312Z,50.22
2022-08-16T16:05:17.043Z,49.98
2022-08-16T16:07:56.724Z,50.15
2022-08-16T16:10:32.077Z,50.00
2022-08-16T16:13:01.668Z,49.98
2022-08-16T16:15:32.961Z,50.10
2022-08-16T16:18:09.049Z,50.05
2022-08-16T16:20:39.654Z,50.00
2022-08-16T16:23:10.459Z,50.17
2022-08-16T16:25:38.851Z,50.20
2022-08-16T16:28:12.706Z,50.13
2022-08-16T16:30:56.540Z,50.03
2022-08-16T16:33:24.956Z,49.94
2022-08-16T16:35:55.698Z,49.96
2022-08-16T16:38:28.737Z,49.79
2022-08-16T16:40:55.897Z,50.16
2022-08-16T16:43:26.084Z,49.99
2022-08-16T16:45:58.794Z,50.16
2022-08-16T16:48:34.386Z,49.91
2022-08-16T16:51:09.445Z,50.13
2022-08-16T16:53:40.962Z,50.28
2022-08-16T16:56:19.317Z,50.13
2022-08-16T16:59:00.939Z,50.41
2022-08-16T17:01:56.682Z,49.96
2022-08-16T17:04:27.436Z,50.04
2022-08-16T17:07:01.473Z,50.06
2022-08-16T17:09:28.343Z,50.16
2022-08-16T17:11:56.951Z,50.07
2022-08-16T17:14:33.313Z,49.96
2022-08-16T17:17:06.514Z,49.83
2022-08-16T17:19:33.982Z,50.04
2022-08-16T17:22:14.303Z,49.95
2022-08-16T17:24:50.768Z,50.17
2022-08-16T17:27:33.156Z,50.05
2022-08-16T17:30:14.917Z,50.19
2022-08-16T17:35:37.140Z,50.49
2022-08-16T17:38:06.970Z,50.52
2022-08-16T17:39:27.125Z,50.32
2022-08-16T17:40:47.064Z,51.56
2022-08-16T17:43:32.339Z,53.05
2022-08-16T17:45:59.383Z,54.20
2022-08-16T17:48:27.081Z,54.66
2022-08-16T17:50:54.999Z,54.89
2022-08-16T17:53:22.132Z,55.00
2022-08-16T17:55:50.451Z,55.36
2022-08-16T17:58:22.624Z,55.46
2022-08-16T18:00:53.586Z,55.80
2022-08-16T18:04:06.865Z,55.82
2022-08-16T18:06:20.873Z,55.92
2022-08-16T18:08:48.356Z,55.95
2022-08-16T18:11:26.012Z,55.95
2022-08-16T18:13:54.844Z,55.90
2022-08-16T18:16:21.550Z,54.93
2022-08-16T18:18:48.232Z,55.04
2022-08-16T18:21:33.770Z,55.36
2022-08-16T18:24:00.795Z,55.72
2022-08-16T18:26:27.525Z,55.74
2022-08-16T18:28:54.303Z,55.84
2022-08-16T18:31:20.951Z,56.07
2022-08-16T18:33:47.812Z,56.16
2022-08-16T18:36:20.396Z,56.21
2022-08-16T18:38:49.365Z,56.10
2022-08-16T18:41:17.064Z,55.93
2022-08-16T18:44:14.145Z,56.16
2022-08-16T18:46:30.572Z,56.42
2022-08-16T18:48:57.547Z,56.07
2022-08-16T18:51:25.509Z,56.15
2022-08-16T18:53:52.968Z,56.04
2022-08-16T18:56:19.800Z,55.97
2022-08-16T18:58:46.427Z,56.06
2022-08-16T19:01:13.467Z,56.07
2022-08-16T19:03:40.336Z,55.97
2022-08-16T19:06:14.209Z,56.02
2022-08-16T19:08:43.802Z,55.78
2022-08-16T19:11:14.908Z,55.97
2022-08-16T19:13:44.235Z,56.15
2022-08-16T19:16:12.490Z,56.11
2022-08-16T19:18:39.478Z,56.23
2022-08-16T19:21:07.986Z,56.27
2022-08-16T19:23:37.299Z,55.98
2022-08-16T19:26:24.574Z,56.46
2022-08-16T19:28:58.554Z,56.47
2022-08-16T19:31:34.021Z,56.63
2022-08-16T19:34:02.137Z,56.58
2022-08-16T19:36:35.954Z,56.84
2022-08-16T19:39:06.910Z,56.71
2022-08-16T19:41:40.873Z,56.84
2022-08-16T19:44:08.133Z,56.89
2022-08-16T19:46:35.691Z,57.06
2022-08-16T19:49:03.007Z,57.01
2022-08-16T19:51:30.087Z,56.99
2022-08-16T19:53:56.809Z,56.56
2022-08-16T19:56:25.761Z,56.88
2022-08-16T19:59:17.551Z,56.71
2022-08-16T20:01:42.225Z,57.00
2022-08-16T20:04:12.298Z,57.01
2022-08-16T20:06:40.336Z,56.83
2022-08-16T20:09:07.055Z,56.69
2022-08-16T20:11:35.341Z,56.92
2022-08-16T20:14:02.716Z,57.09
2022-08-16T20:16:29.445Z,56.70
2022-08-16T20:18:56.144Z,56.72
2022-08-16T20:21:22.918Z,57.10
2022-08-16T20:23:49.517Z,56.90
2022-08-16T20:26:16.382Z,56.92
2022-08-16T20:28:52.525Z,56.96
2022-08-16T20:31:24.062Z,57.01
2022-08-16T20:33:52.236Z,56.60
2022-08-16T20:36:19.091Z,56.51
2022-08-16T20:38:47.699Z,56.70
2022-08-16T20:41:16.184Z,56.64
2022-08-16T20:43:43.338Z,56.90
2022-08-16T20:46:10.638Z,56.88
2022-08-16T20:48:37.223Z,56.57
2022-08-16T20:51:04.193Z,56.84
2022-08-16T20:53:30.882Z,56.63
2022-08-16T20:55:57.674Z,56.83
2022-08-16T20:58:24.246Z,56.88
2022-08-16T21:00:50.958Z,57.02
2022-08-16T21:03:17.593Z,56.83
2022-08-16T21:05:45.302Z,56.95
2022-08-16T21:10:41.533Z,56.83
2022-08-16T21:13:13.552Z,56.77
2022-08-16T21:15:40.213Z,56.60
2022-08-16T21:18:06.815Z,56.79
2022-08-16T21:20:34.040Z,56.33
2022-08-16T21:23:05.729Z,56.35
2022-08-16T21:25:32.989Z,56.34
2022-08-16T21:28:38.966Z,56.41
2022-08-16T21:30:49.398Z,56.06
2022-08-16T21:33:18.799Z,56.22
2022-08-16T21:35:47.695Z,56.50
2022-08-16T21:38:30.240Z,56.52
2022-08-16T21:41:00.112Z,56.54
2022-08-16T21:43:31.712Z,56.17
2022-08-16T21:45:59.005Z,56.48
2022-08-16T21:48:35.177Z,56.41
2022-08-16T21:51:05.387Z,56.08
2022-08-16T21:53:33.257Z,56.12
2022-08-16T21:56:01.194Z,56.35
2022-08-16T21:58:28.485Z,56.16
2022-08-16T22:00:55.812Z,56.25
2022-08-16T22:03:23.443Z,56.30
2022-08-16T22:06:05.875Z,56.30
2022-08-16T22:08:45.660Z,56.07
2022-08-16T22:11:22.676Z,56.45
2022-08-16T22:13:57.328Z,56.51
2022-08-16T22:16:26.597Z,56.03
2022-08-16T22:18:53.276Z,56.49
2022-08-16T22:21:20.245Z,56.49
2022-08-16T22:23:55.178Z,56.77
2022-08-16T22:26:30.142Z,56.53
2022-08-16T22:28:59.794Z,56.65
2022-08-16T22:31:27.526Z,56.90
2022-08-16T22:33:56.596Z,56.42
2022-08-16T22:36:28.174Z,56.70
2022-08-16T22:38:58.087Z,56.55
2022-08-16T22:41:25.863Z,56.91
2022-08-16T22:43:52.572Z,56.39
2022-08-16T22:46:19.620Z,56.55
2022-08-16T22:48:50.391Z,56.60
2022-08-16T22:51:19.184Z,56.30
2022-08-16T22:53:45.866Z,56.20
2022-08-16T22:56:12.756Z,56.23
2022-08-16T22:58:39.643Z,56.29
2022-08-16T23:01:08.334Z,56.43
2022-08-16T23:03:36.008Z,55.93
2022-08-16T23:06:06.488Z,55.63
2022-08-16T23:08:39.569Z,55.38
2022-08-16T23:11:14.537Z,55.32
2022-08-16T23:13:49.969Z,54.79
2022-08-16T23:16:34.276Z,54.53
2022-08-16T23:19:07.096Z,54.16
2022-08-16T23:21:35.420Z,54.29
2022-08-16T23:24:02.059Z,54.00
2022-08-16T23:26:43.793Z,53.46
2022-08-16T23:29:23.864Z,53.35
2022-08-16T23:31:53.834Z,53.50
2022-08-16T23:34:21.969Z,53.13
2022-08-16T23:36:48.581Z,52.96
2022-08-16T23:39:15.225Z,52.93
2022-08-16T23:41:41.926Z,53.21
2022-08-16T23:44:44.148Z,53.14
2022-08-16T23:46:55.596Z,52.81
2022-08-16T23:49:58.439Z,52.60
2022-08-16T23:52:10.130Z,52.71
2022-08-16T23:54:37.098Z,52.77
2022-08-16T23:57:03.888Z,52.55
2022-08-16T23:59:31.766Z,52.18
